Time;durP1;ratioP1;P1;durP2;ratioP2;P2;SDS_P1;SDS_P2;PMS_P1;PMS_P2;Temp;Humidity;BMP_temperature;BMP_pressure;BME280_temperature;BME280_humidity;BME280_pressure;Samples;Min_cycle;Max_cycle;Signal;HPM_P1;HPM_P2
2022/10/29 00:01:44;;;;;;;1.10;1.10;;;12.40;99.90;;;;;;5029966;28;20389;-73
2022/10/29 00:04:10;;;;;;;1.87;1.77;;;12.40;99.90;;;;;;5030139;28;20034;-73
2022/10/29 00:06:35;;;;;;;1.13;1.13;;;12.40;99.90;;;;;;5031586;28;20033;-73
2022/10/29 00:09:01;;;;;;;2.40;1.63;;;12.30;99.90;;;;;;5030457;28;20257;-72
2022/10/29 00:11:26;;;;;;;2.27;2.00;;;12.30;99.90;;;;;;5031391;28;20523;-73
2022/10/29 00:13:55;;;;;;;1.70;1.60;;;12.30;99.90;;;;;;5030171;28;20413;-73
2022/10/29 00:16:24;;;;;;;2.08;1.65;;;12.20;99.90;;;;;;5030272;28;20051;-73
2022/10/29 00:18:50;;;;;;;3.47;2.08;;;12.20;99.90;;;;;;5030109;28;20060;-73
2022/10/29 00:21:18;;;;;;;2.60;2.40;;;12.20;99.90;;;;;;5031384;28;20444;-73
2022/10/29 00:23:44;;;;;;;0.93;0.93;;;12.10;99.90;;;;;;5030020;28;20053;-72
2022/10/29 00:26:10;;;;;;;2.53;2.30;;;12.10;99.90;;;;;;5030267;28;20021;-73
2022/10/29 00:28:36;;;;;;;2.55;2.17;;;12.10;99.90;;;;;;5031034;28;20030;-72
2022/10/29 00:31:12;;;;;;;1.07;1.07;;;12.10;99.90;;;;;;5030250;28;20030;-73
2022/10/29 00:33:38;;;;;;;3.47;2.38;;;12.10;99.90;;;;;;5030090;28;20338;-73
2022/10/29 00:36:15;;;;;;;1.80;1.70;;;12.10;99.90;;;;;;5029026;28;20064;-73
2022/10/29 00:38:41;;;;;;;1.50;1.17;;;12.10;99.90;;;;;;5039023;28;20052;-73
2022/10/29 00:41:11;;;;;;;0.88;0.88;;;12.00;99.90;;;;;;5031818;28;20479;-73
2022/10/29 00:43:41;;;;;;;1.60;1.50;;;12.00;99.90;;;;;;5029381;28;20480;-74
2022/10/29 00:46:11;;;;;;;1.25;1.17;;;12.00;99.90;;;;;;5031341;28;20453;-72
2022/10/29 00:48:48;;;;;;;1.08;1.08;;;11.90;99.90;;;;;;5027773;28;20114;-73
2022/10/29 00:51:15;;;;;;;;;;;11.90;99.90;;;;;;5032180;28;20385;-72
2022/10/29 00:53:44;;;;;;;1.40;1.30;;;11.90;99.90;;;;;;5030159;28;19963;-72
2022/10/29 00:56:14;;;;;;;4.35;1.73;;;11.90;99.90;;;;;;5030413;28;20441;-72
2022/10/29 00:58:41;;;;;;;1.52;1.42;;;11.90;99.90;;;;;;5030866;28;20033;-72
2022/10/29 01:01:07;;;;;;;2.13;2.03;;;12.00;99.90;;;;;;5031585;28;20043;-73
2022/10/29 01:03:33;;;;;;;1.65;1.55;;;11.90;99.90;;;;;;5026655;28;20033;-73
2022/10/29 01:06:00;;;;;;;1.07;1.07;;;12.20;99.90;;;;;;5029089;28;20052;-73
2022/10/29 01:08:25;;;;;;;;;;;11.80;99.90;;;;;;5031653;28;20082;-72
2022/10/29 01:11:32;;;;;;;1.25;1.15;;;11.90;99.90;;;;;;5031398;28;20357;-72
2022/10/29 01:14:03;;;;;;;1.00;1.00;;;11.90;99.90;;;;;;5027468;28;20127;-73
2022/10/29 01:16:51;;;;;;;0.52;0.52;;;11.80;99.90;;;;;;5030333;28;20025;-73
2022/10/29 01:19:17;;;;;;;;;;;11.80;99.90;;;;;;5029422;28;20053;-73
2022/10/29 01:22:14;;;;;;;0.95;0.85;;;11.70;99.90;;;;;;5031166;28;19975;-73
2022/10/29 01:25:01;;;;;;;0.80;0.80;;;11.70;99.90;;;;;;5029084;28;20068;-72
2022/10/29 01:27:53;;;;;;;3.95;3.25;;;11.70;99.90;;;;;;5029247;28;20087;-73
2022/10/29 01:30:45;;;;;;;0.95;0.95;;;11.70;99.90;;;;;;5015072;28;20033;-73
2022/10/29 01:33:30;;;;;;;2.40;1.50;;;11.60;99.90;;;;;;5029434;28;20029;-73
2022/10/29 01:35:56;;;;;;;1.17;1.13;;;11.60;99.90;;;;;;5029182;28;20028;-72
2022/10/29 01:38:47;;;;;;;1.77;1.63;;;11.60;99.90;;;;;;5029242;28;20025;-73
2022/10/29 01:41:31;;;;;;;2.90;1.08;;;11.60;99.90;;;;;;5029704;28;20057;-73
2022/10/29 01:44:21;;;;;;;2.10;2.00;;;11.60;99.90;;;;;;5026713;28;20115;-71
2022/10/29 01:46:53;;;;;;;5.00;2.05;;;11.50;99.90;;;;;;5030797;28;20032;-72
2022/10/29 01:49:28;;;;;;;0.57;0.57;;;11.50;99.90;;;;;;5028773;28;20049;-72
2022/10/29 01:51:55;;;;;;;2.50;2.30;;;11.50;99.90;;;;;;5027863;28;20422;-73
2022/10/29 01:54:21;;;;;;;1.10;1.10;;;11.50;99.90;;;;;;5029610;28;20029;-73
2022/10/29 01:56:57;;;;;;;0.87;0.87;;;11.50;99.90;;;;;;5030746;28;20603;-72
2022/10/29 01:59:26;;;;;;;2.97;2.78;;;11.40;99.90;;;;;;5028049;28;20393;-72
2022/10/29 02:02:04;;;;;;;1.48;1.38;;;11.40;99.90;;;;;;5030036;28;20021;-73
2022/10/29 02:04:46;;;;;;;;;;;11.40;99.90;;;;;;5017341;28;20030;-72
2022/10/29 02:07:31;;;;;;;0.98;0.98;;;11.40;99.90;;;;;;5027246;28;19909;-72
2022/10/29 02:10:16;;;;;;;0.90;0.90;;;11.40;99.90;;;;;;5028781;28;20076;-73
2022/10/29 02:12:52;;;;;;;1.77;1.67;;;11.40;99.90;;;;;;5016450;28;20063;-73
2022/10/29 02:15:27;;;;;;;0.93;0.90;;;11.40;99.90;;;;;;5029335;28;20070;-73
2022/10/29 02:17:58;;;;;;;1.75;1.65;;;11.30;99.90;;;;;;5029819;28;20031;-73
2022/10/29 02:20:24;;;;;;;1.45;1.35;;;11.30;99.90;;;;;;5028691;28;20080;-73
2022/10/29 02:22:50;;;;;;;2.00;1.90;;;11.30;99.90;;;;;;5027289;28;20380;-72
2022/10/29 02:25:16;;;;;;;1.47;1.37;;;11.30;99.90;;;;;;5030018;28;20037;-74
2022/10/29 02:27:41;;;;;;;1.35;1.25;;;11.30;99.90;;;;;;5029490;28;20100;-73
2022/10/29 02:30:07;;;;;;;2.00;1.77;;;11.10;99.90;;;;;;5028208;28;20168;-73
2022/10/29 02:32:33;;;;;;;1.63;1.53;;;11.20;99.90;;;;;;5029819;28;20048;-73
2022/10/29 02:35:00;;;;;;;1.60;1.50;;;11.80;99.90;;;;;;5033281;28;20029;-72
2022/10/29 02:37:25;;;;;;;1.45;1.38;;;11.20;99.90;;;;;;5028996;28;20037;-72
2022/10/29 02:39:51;;;;;;;2.00;1.90;;;11.20;99.90;;;;;;5030295;28;20159;-73
2022/10/29 02:42:17;;;;;;;3.00;2.77;;;11.10;99.90;;;;;;5030405;28;20077;-73
2022/10/29 02:44:42;;;;;;;1.90;1.80;;;11.10;99.90;;;;;;5030237;28;20033;-72
2022/10/29 02:47:08;;;;;;;1.60;1.47;;;11.10;99.90;;;;;;5029932;28;20026;-73
2022/10/29 02:49:33;;;;;;;7.40;3.70;;;11.10;99.90;;;;;;5028911;28;20124;-73
2022/10/29 02:51:59;;;;;;;2.30;1.80;;;11.10;99.90;;;;;;5028118;28;20025;-73
2022/10/29 02:54:24;;;;;;;2.10;1.50;;;9.60;99.90;;;;;;5028125;28;20052;-73
2022/10/29 02:56:50;;;;;;;1.53;1.43;;;11.10;99.90;;;;;;5031953;28;20033;-73
2022/10/29 02:59:16;;;;;;;1.13;1.10;;;11.10;99.90;;;;;;5029853;28;20040;-73
2022/10/29 03:01:41;;;;;;;3.80;2.57;;;11.00;99.90;;;;;;5032961;28;20087;-72
2022/10/29 03:04:07;;;;;;;2.10;1.90;;;11.00;99.90;;;;;;5031953;28;20033;-72
2022/10/29 03:06:32;;;;;;;1.93;1.83;;;11.00;99.90;;;;;;5031998;28;20138;-73
2022/10/29 03:08:58;;;;;;;1.57;1.07;;;10.90;99.90;;;;;;5032322;28;20030;-74
2022/10/29 03:11:23;;;;;;;2.03;1.83;;;10.90;99.90;;;;;;5032803;28;20105;-73
2022/10/29 03:13:49;;;;;;;2.30;2.20;;;10.90;99.90;;;;;;5031859;28;20241;-73
2022/10/29 03:16:14;;;;;;;1.43;1.33;;;10.90;99.90;;;;;;5031510;28;20025;-73
2022/10/29 03:18:40;;;;;;;1.13;1.07;;;10.90;99.90;;;;;;5031297;28;20207;-73
2022/10/29 03:21:09;;;;;;;1.83;1.73;;;10.70;99.90;;;;;;5032323;28;20033;-73
2022/10/29 03:23:34;;;;;;;1.83;1.73;;;11.10;99.90;;;;;;5031489;28;20052;-72
2022/10/29 03:26:00;;;;;;;0.60;0.60;;;10.80;99.90;;;;;;5032698;28;20029;-72
2022/10/29 03:28:29;;;;;;;1.13;1.13;;;10.80;99.90;;;;;;5032355;28;20086;-73
2022/10/29 03:30:56;;;;;;;2.40;1.48;;;10.80;99.90;;;;;;5032720;28;20067;-73
2022/10/29 03:33:24;;;;;;;5.22;2.10;;;10.80;99.90;;;;;;5031131;28;20173;-72
2022/10/29 03:36:04;;;;;;;2.15;1.98;;;10.70;99.90;;;;;;5033428;28;20129;-73
2022/10/29 03:38:30;;;;;;;0.47;0.47;;;10.70;99.90;;;;;;5029817;28;20029;-72
2022/10/29 03:40:58;;;;;;;1.00;1.00;;;10.70;99.90;;;;;;5030102;28;20116;-74
2022/10/29 03:43:24;;;;;;;1.10;1.10;;;10.70;99.90;;;;;;5031108;28;20045;-73
2022/10/29 03:45:51;;;;;;;1.65;1.52;;;10.70;99.90;;;;;;5033038;28;20029;-73
2022/10/29 03:48:17;;;;;;;;;;;10.70;99.90;;;;;;5030806;28;20056;-73
2022/10/29 03:50:42;;;;;;;1.25;1.25;;;10.60;99.90;;;;;;5029429;28;19913;-72
2022/10/29 03:53:09;;;;;;;3.97;2.17;;;10.70;99.90;;;;;;5031642;28;20293;-72
2022/10/29 03:55:34;;;;;;;1.50;1.40;;;10.70;99.90;;;;;;5030501;28;20045;-73
2022/10/29 03:58:00;;;;;;;1.73;1.63;;;10.70;99.90;;;;;;5032589;28;20548;-73
2022/10/29 04:00:25;;;;;;;2.07;1.90;;;10.60;99.90;;;;;;5032996;28;20333;-73
2022/10/29 04:02:51;;;;;;;0.90;0.90;;;10.60;99.90;;;;;;5031421;28;20034;-73
2022/10/29 04:05:17;;;;;;;1.23;1.23;;;10.60;99.90;;;;;;5031122;28;20033;-73
2022/10/29 04:07:42;;;;;;;1.43;1.33;;;10.60;99.90;;;;;;5014525;28;20037;-73
2022/10/29 04:10:08;;;;;;;1.37;1.33;;;10.50;99.90;;;;;;5030871;28;20452;-73
2022/10/29 04:12:33;;;;;;;1.80;1.70;;;11.00;99.90;;;;;;5029369;28;20783;-73
2022/10/29 04:14:59;;;;;;;0.67;0.67;;;10.50;99.90;;;;;;5032346;28;20029;-73
2022/10/29 04:17:25;;;;;;;2.57;2.37;;;10.50;99.90;;;;;;5030467;28;20278;-72
2022/10/29 04:19:50;;;;;;;3.10;2.90;;;11.10;99.90;;;;;;5031849;28;20021;-73
2022/10/29 04:22:16;;;;;;;1.40;1.30;;;11.00;99.90;;;;;;5032143;28;20371;-73
2022/10/29 04:24:41;;;;;;;2.57;2.23;;;10.40;99.90;;;;;;5029823;28;20030;-73
2022/10/29 04:27:07;;;;;;;2.13;2.03;;;10.40;99.90;;;;;;5030196;28;20036;-73
2022/10/29 04:29:33;;;;;;;0.87;0.87;;;10.50;99.90;;;;;;5031769;28;20033;-73
2022/10/29 04:31:58;;;;;;;1.03;0.90;;;10.40;99.90;;;;;;5031479;28;20109;-73
2022/10/29 04:34:24;;;;;;;1.13;1.13;;;10.40;99.90;;;;;;5032337;28;20025;-73
2022/10/29 04:36:51;;;;;;;1.33;1.23;;;10.40;99.90;;;;;;5030806;28;20042;-72
2022/10/29 04:39:17;;;;;;;1.60;1.50;;;10.40;99.90;;;;;;5031494;28;20029;-73
2022/10/29 04:41:42;;;;;;;2.63;1.63;;;11.90;99.90;;;;;;5024283;28;20044;-73
2022/10/29 04:44:11;;;;;;;1.43;1.37;;;10.40;99.90;;;;;;5032106;28;20059;-73
2022/10/29 04:46:36;;;;;;;0.95;0.95;;;10.40;99.90;;;;;;5030981;28;20026;-72
2022/10/29 04:49:02;;;;;;;1.13;1.13;;;10.30;99.90;;;;;;5029981;28;20040;-73
2022/10/29 04:51:27;;;;;;;1.10;1.10;;;10.30;99.90;;;;;;5031712;28;20029;-73
2022/10/29 04:53:53;;;;;;;0.90;0.90;;;10.30;99.90;;;;;;5030048;28;20030;-73
2022/10/29 04:56:21;;;;;;;2.33;2.13;;;10.30;99.90;;;;;;5027934;28;20033;-73
2022/10/29 04:58:49;;;;;;;1.20;1.10;;;10.30;99.90;;;;;;5029206;28;20469;-74
2022/10/29 05:01:15;;;;;;;1.02;1.02;;;10.40;99.90;;;;;;5031432;28;20025;-72
2022/10/29 05:03:40;;;;;;;2.17;2.07;;;10.40;99.90;;;;;;5030955;28;20045;-74
2022/10/29 05:06:06;;;;;;;0.80;0.80;;;10.40;99.90;;;;;;5030606;28;20676;-73
2022/10/29 05:08:32;;;;;;;0.77;0.77;;;10.30;99.90;;;;;;5030366;28;20104;-72
2022/10/29 05:11:02;;;;;;;2.17;1.67;;;10.30;99.90;;;;;;5030986;28;20064;-73
2022/10/29 05:13:27;;;;;;;0.68;0.68;;;10.40;99.90;;;;;;5029263;28;20033;-72
2022/10/29 05:15:53;;;;;;;1.80;1.70;;;10.40;99.90;;;;;;5029969;28;20034;-73
2022/10/29 05:18:18;;;;;;;0.83;0.83;;;10.40;99.90;;;;;;5029248;28;20037;-72
2022/10/29 05:20:44;;;;;;;0.57;0.57;;;10.40;99.90;;;;;;5029175;28;20034;-72
2022/10/29 05:23:10;;;;;;;0.53;0.53;;;10.40;99.90;;;;;;5030421;28;20029;-72
2022/10/29 05:25:38;;;;;;;1.05;1.02;;;10.50;99.90;;;;;;5029045;28;20055;-73
2022/10/29 05:28:06;;;;;;;0.93;0.93;;;10.40;99.90;;;;;;5028760;28;20072;-73
2022/10/29 05:30:33;;;;;;;1.55;1.45;;;10.40;99.90;;;;;;5030825;28;20389;-73
2022/10/29 05:32:59;;;;;;;;;;;10.50;99.90;;;;;;5030805;28;20572;-72
2022/10/29 05:35:25;;;;;;;1.00;0.98;;;10.60;99.90;;;;;;5029466;28;19913;-73
2022/10/29 05:37:52;;;;;;;2.88;2.63;;;10.60;99.90;;;;;;5030359;28;20142;-74
2022/10/29 05:40:18;;;;;;;;;;;10.80;99.90;;;;;;5031756;28;20318;-73
2022/10/29 05:42:43;;;;;;;2.15;1.98;;;10.80;99.90;;;;;;5028403;28;20435;-74
2022/10/29 05:45:09;;;;;;;1.93;1.80;;;10.80;99.90;;;;;;5030605;28;20025;-73
2022/10/29 05:47:35;;;;;;;0.93;0.93;;;11.10;99.90;;;;;;5022603;28;20433;-72
2022/10/29 05:50:00;;;;;;;2.07;1.97;;;11.40;99.90;;;;;;5016044;28;20485;-74
2022/10/29 05:52:26;;;;;;;0.93;0.93;;;11.70;99.90;;;;;;5030104;28;20025;-73
2022/10/29 05:54:51;;;;;;;1.80;1.70;;;11.80;99.90;;;;;;5029770;28;20083;-73
2022/10/29 05:57:19;;;;;;;3.83;1.97;;;12.00;99.90;;;;;;5027938;28;20018;-73
2022/10/29 05:59:45;;;;;;;1.98;1.88;;;12.20;99.90;;;;;;5027556;28;20076;-73
2022/10/29 06:02:14;;;;;;;1.60;1.50;;;12.30;99.90;;;;;;5027840;28;20033;-74
2022/10/29 06:04:39;;;;;;;0.73;0.73;;;12.40;99.90;;;;;;5010794;28;20038;-74
2022/10/29 06:07:05;;;;;;;5.90;2.33;;;12.50;99.90;;;;;;5026584;28;20034;-73
2022/10/29 06:09:31;;;;;;;2.00;1.83;;;12.50;99.90;;;;;;5028009;28;20105;-73
2022/10/29 06:11:56;;;;;;;2.23;2.03;;;12.70;99.90;;;;;;5029011;28;20029;-73
2022/10/29 06:14:22;;;;;;;4.03;2.60;;;14.20;99.90;;;;;;5029613;28;20058;-73
2022/10/29 06:16:47;;;;;;;0.93;0.93;;;13.10;99.90;;;;;;5029073;28;20084;-73
2022/10/29 06:19:13;;;;;;;2.73;2.53;;;13.20;99.90;;;;;;5029204;28;20137;-74
2022/10/29 06:21:39;;;;;;;2.80;2.60;;;13.20;99.90;;;;;;5029205;28;20326;-73
2022/10/29 06:24:05;;;;;;;2.17;1.27;;;13.10;99.90;;;;;;5029561;28;20171;-74
2022/10/29 06:26:31;;;;;;;6.10;2.05;;;13.20;99.90;;;;;;5030002;28;20032;-74
2022/10/29 06:28:56;;;;;;;2.00;1.90;;;13.10;99.90;;;;;;5028660;28;20397;-75
2022/10/29 06:31:22;;;;;;;3.40;3.10;;;13.00;99.90;;;;;;5030935;28;20117;-74
2022/10/29 06:33:47;;;;;;;21.77;1.57;;;12.90;99.90;;;;;;5033381;28;20041;-73
2022/10/29 06:36:13;;;;;;;2.67;2.47;;;12.90;99.90;;;;;;5034041;28;20025;-73
2022/10/29 06:38:39;;;;;;;0.73;0.73;;;14.30;99.90;;;;;;5031268;28;20045;-73
2022/10/29 06:41:04;;;;;;;10.13;2.93;;;12.90;99.90;;;;;;5031045;28;20374;-74
2022/10/29 06:43:30;;;;;;;3.00;2.70;;;12.90;99.90;;;;;;5032076;28;20120;-74
2022/10/29 06:45:56;;;;;;;1.13;1.13;;;12.90;99.90;;;;;;5032790;28;20378;-74
2022/10/29 06:48:21;;;;;;;2.07;1.87;;;12.90;99.90;;;;;;5030679;28;20050;-74
2022/10/29 06:50:47;;;;;;;2.83;2.63;;;12.60;99.90;;;;;;5033781;28;20029;-75
2022/10/29 06:53:13;;;;;;;2.73;2.53;;;12.60;99.90;;;;;;5033015;28;20473;-74
2022/10/29 06:55:40;;;;;;;0.93;0.93;;;12.70;99.90;;;;;;5030116;28;20068;-75
2022/10/29 06:58:12;;;;;;;3.80;3.15;;;12.30;99.90;;;;;;5031101;28;20053;-75
2022/10/29 07:00:38;;;;;;;2.63;2.45;;;12.30;99.90;;;;;;5031433;28;20034;-75
2022/10/29 07:03:05;;;;;;;1.00;1.00;;;12.30;99.90;;;;;;5033055;28;20029;-75
2022/10/29 07:05:32;;;;;;;1.98;1.88;;;12.30;99.90;;;;;;5030718;28;20121;-75
2022/10/29 07:07:59;;;;;;;1.48;1.38;;;12.20;99.90;;;;;;5031799;28;20022;-74
2022/10/29 07:10:27;;;;;;;3.42;1.63;;;12.20;99.90;;;;;;5031446;28;20453;-73
2022/10/29 07:12:53;;;;;;;2.97;2.60;;;12.30;99.90;;;;;;5031151;28;20038;-73
2022/10/29 07:15:18;;;;;;;17.33;2.20;;;12.30;99.90;;;;;;5029356;28;20045;-73
2022/10/29 07:18:16;;;;;;;1.57;1.47;;;12.40;99.90;;;;;;5032476;28;20511;-72
2022/10/29 07:20:44;;;;;;;1.50;1.42;;;12.50;99.90;;;;;;5027346;28;20053;-74
2022/10/29 07:23:10;;;;;;;1.65;1.50;;;12.20;99.90;;;;;;5032221;28;20536;-73
2022/10/29 07:25:38;;;;;;;2.42;2.22;;;12.70;99.90;;;;;;5031503;28;20057;-73
2022/10/29 07:28:11;;;;;;;1.80;1.70;;;12.70;99.90;;;;;;5030262;28;20485;-73
2022/10/29 07:30:37;;;;;;;0.90;0.90;;;12.70;99.90;;;;;;5031549;28;20104;-74
2022/10/29 07:33:02;;;;;;;2.10;2.00;;;12.60;99.90;;;;;;5031815;28;20128;-73
2022/10/29 07:35:28;;;;;;;0.70;0.70;;;12.50;99.90;;;;;;5031701;28;20120;-73
2022/10/29 07:37:59;;;;;;;1.80;1.43;;;12.50;99.90;;;;;;5032154;28;20056;-73
2022/10/29 07:40:24;;;;;;;2.78;2.58;;;12.50;99.90;;;;;;5030319;28;20298;-74
2022/10/29 07:42:53;;;;;;;3.50;3.20;;;12.50;99.90;;;;;;5030797;28;20037;-73
2022/10/29 07:45:19;;;;;;;2.55;2.17;;;12.50;99.90;;;;;;5031627;28;20040;-73
2022/10/29 07:47:45;;;;;;;0.52;0.52;;;12.50;99.90;;;;;;5030910;28;20050;-74
2022/10/29 07:50:11;;;;;;;1.63;1.53;;;12.60;99.90;;;;;;5030486;28;20326;-73
2022/10/29 07:52:38;;;;;;;1.40;1.27;;;12.70;99.90;;;;;;5030007;28;20120;-72
2022/10/29 07:55:04;;;;;;;1.58;1.48;;;12.70;99.90;;;;;;5030496;28;20068;-73
2022/10/29 07:57:30;;;;;;;2.20;2.05;;;12.80;99.90;;;;;;5032134;28;20304;-74
2022/10/29 07:59:55;;;;;;;1.90;1.80;;;12.80;99.90;;;;;;5029487;28;20037;-73
2022/10/29 08:02:21;;;;;;;1.37;1.27;;;12.90;99.90;;;;;;5029598;28;20025;-73
2022/10/29 08:04:46;;;;;;;2.03;1.77;;;11.90;99.90;;;;;;5030764;28;20108;-73
2022/10/29 08:07:12;;;;;;;5.13;2.77;;;13.00;99.90;;;;;;5031472;28;20033;-74
2022/10/29 08:09:39;;;;;;;1.63;1.53;;;12.60;99.90;;;;;;5031925;28;20445;-73
2022/10/29 08:12:05;;;;;;;4.28;2.00;;;12.90;99.90;;;;;;5030786;28;20037;-73
2022/10/29 08:14:31;;;;;;;1.65;1.55;;;13.00;99.90;;;;;;5026309;28;20501;-74
2022/10/29 08:16:57;;;;;;;2.57;2.37;;;13.00;99.90;;;;;;5011011;28;20018;-73
2022/10/29 08:19:23;;;;;;;5.90;3.07;;;13.20;99.90;;;;;;5030651;28;20429;-73
2022/10/29 08:21:49;;;;;;;6.13;1.70;;;13.80;99.90;;;;;;5032348;28;20039;-73
2022/10/29 08:24:15;;;;;;;0.97;0.97;;;14.20;99.90;;;;;;5030786;28;20392;-73
2022/10/29 08:26:41;;;;;;;1.75;1.65;;;14.50;99.90;;;;;;5030737;28;20367;-73
2022/10/29 08:29:06;;;;;;;2.07;1.70;;;14.50;99.90;;;;;;5031119;28;20036;-72
2022/10/29 08:31:32;;;;;;;4.80;2.47;;;14.40;99.90;;;;;;5031766;28;20063;-73
2022/10/29 08:33:57;;;;;;;2.00;1.80;;;14.40;99.90;;;;;;5029487;28;20025;-72
2022/10/29 08:36:23;;;;;;;11.80;2.00;;;14.60;99.90;;;;;;5031217;28;20053;-74
2022/10/29 08:38:49;;;;;;;1.50;1.30;;;15.10;99.90;;;;;;5028924;28;20124;-72
2022/10/29 08:41:32;;;;;;;1.90;1.77;;;15.50;99.90;;;;;;5030762;28;20072;-75
2022/10/29 08:43:58;;;;;;;2.17;1.13;;;15.90;99.90;;;;;;5030622;28;20026;-73
2022/10/29 08:46:39;;;;;;;4.33;1.30;;;16.10;99.90;;;;;;5031511;28;20032;-72
2022/10/29 08:49:16;;;;;;;2.00;1.70;;;16.40;99.90;;;;;;5030554;28;20057;-74
2022/10/29 08:51:46;;;;;;;8.43;2.22;;;16.70;99.90;;;;;;5032160;28;20108;-73
2022/10/29 08:54:14;;;;;;;0.93;0.93;;;16.80;99.90;;;;;;5029166;28;20044;-74
2022/10/29 08:56:52;;;;;;;5.43;2.28;;;16.80;99.90;;;;;;5028766;28;20373;-73
2022/10/29 08:59:23;;;;;;;3.88;1.52;;;16.60;99.90;;;;;;5031449;28;20037;-73
2022/10/29 09:01:51;;;;;;;1.67;1.58;;;16.40;99.90;;;;;;5030480;28;20033;-73
2022/10/29 09:04:33;;;;;;;2.05;1.88;;;16.30;99.90;;;;;;5032132;28;20032;-73
2022/10/29 09:07:11;;;;;;;1.70;1.60;;;16.10;99.90;;;;;;5031129;28;20388;-72
2022/10/29 09:09:45;;;;;;;1.48;1.38;;;16.00;99.90;;;;;;5031926;28;20056;-74
2022/10/29 09:12:50;;;;;;;1.20;1.15;;;15.90;99.90;;;;;;5029572;28;20085;-73
2022/10/29 09:15:37;;;;;;;1.25;1.05;;;15.80;99.90;;;;;;5029415;28;20034;-72
2022/10/29 09:18:06;;;;;;;0.70;0.70;;;15.80;99.90;;;;;;5029308;28;20037;-72
2022/10/29 09:20:59;;;;;;;8.05;3.10;;;15.90;99.90;;;;;;5029561;28;20025;-73
2022/10/29 09:23:32;;;;;;;0.63;0.63;;;16.40;99.90;;;;;;5028994;28;20076;-74
2022/10/29 09:26:10;;;;;;;0.68;0.68;;;16.20;99.90;;;;;;5030676;28;20471;-73
2022/10/29 09:29:17;;;;;;;0.65;0.65;;;16.40;99.90;;;;;;5028423;28;20033;-73
2022/10/29 09:31:47;;;;;;;2.90;2.45;;;16.60;99.90;;;;;;5027164;28;20436;-72
2022/10/29 09:34:17;;;;;;;2.17;1.98;;;16.60;99.90;;;;;;5028438;28;20076;-73
2022/10/29 09:36:45;;;;;;;1.50;1.33;;;16.60;99.90;;;;;;5029117;28;20415;-73
2022/10/29 09:39:14;;;;;;;1.05;0.98;;;16.40;99.90;;;;;;5028375;28;20025;-73
2022/10/29 09:41:40;;;;;;;1.17;1.08;;;16.40;99.90;;;;;;5029262;28;20038;-73
2022/10/29 09:44:29;;;;;;;1.30;1.20;;;16.40;99.90;;;;;;5028633;28;20048;-75
2022/10/29 09:47:36;;;;;;;2.28;1.85;;;16.30;99.90;;;;;;5029692;28;21072;-76
2022/10/29 09:50:15;;;;;;;13.02;2.85;;;16.30;99.90;;;;;;5027168;28;20038;-77
2022/10/29 09:52:43;;;;;;;0.75;0.75;;;16.30;99.90;;;;;;5027862;28;20338;-77
2022/10/29 09:55:23;;;;;;;1.40;1.30;;;16.40;99.90;;;;;;5028666;28;20032;-78
2022/10/29 09:57:49;;;;;;;0.65;0.65;;;16.50;99.90;;;;;;5027557;28;20124;-74
2022/10/29 10:00:19;;;;;;;1.98;1.80;;;16.60;99.90;;;;;;5029350;28;20021;-76
2022/10/29 10:02:53;;;;;;;0.98;0.90;;;16.60;99.90;;;;;;5028584;28;20540;-74
2022/10/29 10:05:30;;;;;;;2.25;2.05;;;16.60;99.90;;;;;;5027812;28;20022;-77
2022/10/29 10:08:07;;;;;;;0.50;0.50;;;16.60;99.90;;;;;;5029207;28;20472;-77
2022/10/29 10:10:48;;;;;;;1.90;1.80;;;16.60;99.90;;;;;;5030725;28;20029;-77
2022/10/29 10:13:15;;;;;;;1.17;0.88;;;16.60;99.90;;;;;;5029748;28;20469;-77
2022/10/29 10:15:47;;;;;;;;;;;16.60;99.90;;;;;;5030222;28;20036;-75
2022/10/29 10:18:26;;;;;;;0.57;0.57;;;16.70;99.90;;;;;;5028793;28;20372;-76
2022/10/29 10:21:05;;;;;;;1.95;1.80;;;16.70;99.90;;;;;;5043525;28;20041;-76
2022/10/29 10:23:50;;;;;;;0.63;0.63;;;16.70;99.90;;;;;;5024647;28;20080;-75
2022/10/29 10:26:26;;;;;;;3.42;2.55;;;16.70;99.90;;;;;;5010998;28;20473;-76
2022/10/29 10:29:22;;;;;;;2.17;1.70;;;16.80;99.90;;;;;;5020719;28;20030;-75
2022/10/29 10:31:49;;;;;;;0.93;0.88;;;16.70;99.90;;;;;;5028968;28;20377;-77
2022/10/29 10:34:17;;;;;;;0.95;0.95;;;16.60;99.90;;;;;;5029583;28;20033;-78
2022/10/29 10:36:53;;;;;;;2.58;1.63;;;16.50;99.90;;;;;;5027023;28;20397;-77
2022/10/29 10:39:22;;;;;;;2.15;1.65;;;16.40;99.90;;;;;;5030120;28;20492;-77
2022/10/29 10:41:49;;;;;;;2.15;1.75;;;16.30;99.90;;;;;;5028789;28;20028;-77
2022/10/29 10:44:16;;;;;;;1.83;1.73;;;16.30;99.90;;;;;;5028290;28;20051;-77
2022/10/29 10:46:44;;;;;;;1.00;1.00;;;16.10;99.90;;;;;;5011898;28;20026;-77
2022/10/29 10:49:14;;;;;;;2.85;2.15;;;15.90;99.90;;;;;;5022252;28;20132;-79
2022/10/29 10:51:54;;;;;;;1.85;1.40;;;15.90;99.90;;;;;;5028478;28;20034;-77
2022/10/29 10:54:40;;;;;;;1.67;1.58;;;15.80;99.90;;;;;;5024790;28;20034;-76
2022/10/29 10:57:09;;;;;;;1.80;1.67;;;15.80;99.90;;;;;;5028120;28;20030;-77
2022/10/29 10:59:58;;;;;;;2.92;2.13;;;15.90;99.90;;;;;;5027642;28;20504;-77
2022/10/29 11:02:51;;;;;;;1.23;1.13;;;15.80;99.90;;;;;;5025054;28;20370;-76
2022/10/29 11:05:23;;;;;;;5.57;0.98;;;15.80;99.90;;;;;;5027354;28;20034;-76
2022/10/29 11:08:03;;;;;;;0.47;0.47;;;15.70;99.90;;;;;;5027953;28;20040;-78
2022/10/29 11:10:51;;;;;;;0.65;0.65;;;15.70;99.90;;;;;;5029344;28;20475;-76
2022/10/29 11:13:23;;;;;;;1.67;1.58;;;15.70;99.90;;;;;;5028417;28;20056;-76
2022/10/29 11:16:18;;;;;;;1.30;1.25;;;15.70;99.90;;;;;;5029604;28;20544;-76
2022/10/29 11:18:50;;;;;;;2.22;1.83;;;15.70;99.90;;;;;;5033546;28;20041;-76
2022/10/29 11:21:33;;;;;;;1.15;1.05;;;15.70;99.90;;;;;;5033483;28;20451;-77
2022/10/29 11:24:42;;;;;;;2.88;1.75;;;15.70;99.90;;;;;;5032858;28;20341;-77
2022/10/29 11:27:31;;;;;;;0.95;0.93;;;15.70;99.90;;;;;;5030747;28;20044;-77
2022/10/29 11:30:18;;;;;;;1.02;1.02;;;15.80;99.90;;;;;;5032247;28;20030;-74
2022/10/29 11:33:02;;;;;;;0.95;0.80;;;15.80;99.90;;;;;;5022103;28;20084;-78
2022/10/29 11:35:50;;;;;;;0.98;0.98;;;15.90;99.90;;;;;;5031609;28;20037;-75
2022/10/29 11:38:29;;;;;;;2.00;1.90;;;15.90;99.90;;;;;;5033105;28;20053;-75
2022/10/29 11:41:03;;;;;;;1.10;0.88;;;16.00;99.90;;;;;;5024924;28;20034;-74
2022/10/29 11:43:30;;;;;;;1.58;1.48;;;15.60;99.90;;;;;;5026558;28;20044;-74
2022/10/29 11:46:14;;;;;;;;;;;15.90;99.90;;;;;;5033340;28;20028;-75
2022/10/29 11:49:20;;;;;;;0.40;0.40;;;16.00;99.90;;;;;;5032491;28;20376;-74
2022/10/29 11:52:08;;;;;;;0.60;0.60;;;16.00;99.90;;;;;;5031253;28;20209;-74
2022/10/29 11:54:53;;;;;;;1.80;1.35;;;16.00;99.90;;;;;;5031880;28;20048;-73
2022/10/29 11:57:27;;;;;;;1.05;1.05;;;16.00;99.90;;;;;;5032774;28;20094;-76
2022/10/29 12:00:07;;;;;;;0.47;0.47;;;16.00;99.90;;;;;;5032627;28;20026;-75
2022/10/29 12:02:44;;;;;;;0.93;0.93;;;16.20;99.90;;;;;;5032394;28;20033;-75
2022/10/29 12:05:13;;;;;;;;;;;16.30;99.90;;;;;;5033018;28;20026;-74
2022/10/29 12:08:02;;;;;;;1.35;1.25;;;16.30;99.90;;;;;;5032809;28;19916;-75
2022/10/29 12:10:42;;;;;;;1.27;1.20;;;16.30;99.90;;;;;;5016635;28;20033;-75
2022/10/29 12:13:44;;;;;;;1.67;1.15;;;16.40;99.90;;;;;;5032740;28;20064;-75
2022/10/29 12:16:29;;;;;;;0.88;0.88;;;16.40;99.90;;;;;;5032125;28;20038;-75
2022/10/29 12:19:04;;;;;;;3.00;1.48;;;16.50;99.90;;;;;;5030773;28;20315;-74
2022/10/29 12:21:36;;;;;;;0.65;0.65;;;16.60;99.90;;;;;;5030844;28;20350;-73
2022/10/29 12:24:23;;;;;;;0.73;0.73;;;16.60;99.90;;;;;;5031658;28;20036;-74
2022/10/29 12:27:16;;;;;;;0.50;0.50;;;16.60;99.90;;;;;;5030835;28;20117;-73
2022/10/29 12:29:52;;;;;;;5.13;1.70;;;16.60;99.90;;;;;;5032586;28;20030;-71
2022/10/29 12:32:40;;;;;;;0.77;0.77;;;16.70;99.90;;;;;;5032008;28;20025;-72
2022/10/29 12:35:43;;;;;;;2.50;1.75;;;16.80;99.90;;;;;;5032259;28;20037;-72
2022/10/29 12:38:34;;;;;;;1.30;1.20;;;16.80;99.90;;;;;;5032002;28;20033;-72
2022/10/29 12:41:15;;;;;;;0.82;0.82;;;16.90;99.90;;;;;;5010966;28;20030;-72
2022/10/29 12:43:41;;;;;;;1.38;1.27;;;16.80;99.90;;;;;;5012130;28;20619;-72
2022/10/29 12:46:16;;;;;;;0.70;0.70;;;16.80;99.90;;;;;;5011083;28;20049;-72
2022/10/29 12:48:53;;;;;;;1.33;1.25;;;16.80;99.90;;;;;;5025649;28;20358;-72
2022/10/29 12:51:32;;;;;;;0.95;0.57;;;16.80;99.90;;;;;;5031934;28;20141;-73
2022/10/29 12:54:21;;;;;;;1.20;1.15;;;16.80;99.90;;;;;;5031458;28;20025;-72
2022/10/29 12:56:46;;;;;;;1.38;1.27;;;16.80;99.90;;;;;;5031867;28;20270;-73
2022/10/29 12:59:24;;;;;;;0.77;0.77;;;16.80;99.90;;;;;;5031604;28;20024;-73
2022/10/29 13:01:53;;;;;;;0.77;0.77;;;16.70;99.90;;;;;;5031601;28;20536;-73
2022/10/29 13:04:28;;;;;;;2.92;2.05;;;16.90;99.90;;;;;;5031555;28;20110;-73
2022/10/29 13:07:16;;;;;;;2.30;1.75;;;16.90;99.90;;;;;;5031410;28;20044;-70
2022/10/29 13:09:41;;;;;;;0.85;0.85;;;17.00;99.90;;;;;;5030784;28;20400;-73
2022/10/29 13:12:12;;;;;;;1.20;1.10;;;17.20;99.90;;;;;;5031279;28;20112;-72
2022/10/29 13:14:45;;;;;;;1.17;1.13;;;17.20;99.90;;;;;;5031282;28;20116;-72